sensor_id;sensor_type;location;lat;lon;timestamp;P1;durP1;ratioP1;P2;durP2;ratioP2
7263;SDS011;3673;52.480;13.348;2023-05-02T00:01:47;12.20;;;5.60;;
7263;SDS011;3673;52.480;13.348;2023-05-02T00:04:14;9.68;;;5.30;;
7263;SDS011;3673;52.480;13.348;2023-05-02T00:06:41;9.57;;;5.53;;
7263;SDS011;3673;52.480;13.348;2023-05-02T00:09:10;11.60;;;5.55;;
7263;SDS011;3673;52.480;13.348;2023-05-02T00:11:37;6.40;;;5.00;;
7263;SDS011;3673;52.480;13.348;2023-05-02T00:14:03;6.45;;;4.88;;
7263;SDS011;3673;52.480;13.348;2023-05-02T00:16:30;8.60;;;4.90;;
7263;SDS011;3673;52.480;13.348;2023-05-02T00:18:59;6.75;;;5.05;;
7263;SDS011;3673;52.480;13.348;2023-05-02T00:21:26;6.13;;;4.85;;
7263;SDS011;3673;52.480;13.348;2023-05-02T00:23:53;9.02;;;5.38;;
7263;SDS011;3673;52.480;13.348;2023-05-02T00:26:21;6.85;;;4.65;;
7263;SDS011;3673;52.480;13.348;2023-05-02T00:28:48;9.18;;;4.63;;
7263;SDS011;3673;52.480;13.348;2023-05-02T00:31:14;7.70;;;5.00;;
7263;SDS011;3673;52.480;13.348;2023-05-02T00:33:41;9.60;;;5.40;;
7263;SDS011;3673;52.480;13.348;2023-05-02T00:36:13;8.85;;;5.00;;
7263;SDS011;3673;52.480;13.348;2023-05-02T00:38:41;8.32;;;4.53;;
7263;SDS011;3673;52.480;13.348;2023-05-02T00:41:08;6.95;;;4.82;;
7263;SDS011;3673;52.480;13.348;2023-05-02T00:43:35;6.95;;;4.93;;
7263;SDS011;3673;52.480;13.348;2023-05-02T00:46:05;5.75;;;4.43;;
7263;SDS011;3673;52.480;13.348;2023-05-02T00:48:32;8.45;;;4.88;;
7263;SDS011;3673;52.480;13.348;2023-05-02T00:51:01;7.85;;;5.00;;
7263;SDS011;3673;52.480;13.348;2023-05-02T00:53:31;7.28;;;4.88;;
7263;SDS011;3673;52.480;13.348;2023-05-02T00:55:58;11.65;;;4.63;;
7263;SDS011;3673;52.480;13.348;2023-05-02T00:58:26;6.32;;;4.72;;
7263;SDS011;3673;52.480;13.348;2023-05-02T01:00:58;6.75;;;5.13;;
7263;SDS011;3673;52.480;13.348;2023-05-02T01:03:38;9.85;;;5.55;;
7263;SDS011;3673;52.480;13.348;2023-05-02T01:06:18;10.65;;;5.05;;
7263;SDS011;3673;52.480;13.348;2023-05-02T01:09:01;8.80;;;5.43;;
7263;SDS011;3673;52.480;13.348;2023-05-02T01:11:47;9.23;;;5.13;;
7263;SDS011;3673;52.480;13.348;2023-05-02T01:14:23;7.15;;;4.90;;
7263;SDS011;3673;52.480;13.348;2023-05-02T01:16:54;6.95;;;4.57;;
7263;SDS011;3673;52.480;13.348;2023-05-02T01:19:24;7.03;;;4.18;;
7263;SDS011;3673;52.480;13.348;2023-05-02T01:21:57;6.43;;;4.47;;
7263;SDS011;3673;52.480;13.348;2023-05-02T01:24:31;8.95;;;5.25;;
7263;SDS011;3673;52.480;13.348;2023-05-02T01:27:06;10.52;;;5.47;;
7263;SDS011;3673;52.480;13.348;2023-05-02T01:29:44;7.68;;;5.03;;
7263;SDS011;3673;52.480;13.348;2023-05-02T01:32:16;8.30;;;5.05;;
7263;SDS011;3673;52.480;13.348;2023-05-02T01:34:47;12.00;;;5.53;;
7263;SDS011;3673;52.480;13.348;2023-05-02T01:37:15;6.60;;;4.78;;
7263;SDS011;3673;52.480;13.348;2023-05-02T01:39:44;7.95;;;5.15;;
7263;SDS011;3673;52.480;13.348;2023-05-02T01:42:14;7.13;;;5.05;;
7263;SDS011;3673;52.480;13.348;2023-05-02T01:44:44;7.82;;;4.93;;
7263;SDS011;3673;52.480;13.348;2023-05-02T01:47:13;7.63;;;4.55;;
7263;SDS011;3673;52.480;13.348;2023-05-02T01:49:41;8.90;;;4.95;;
7263;SDS011;3673;52.480;13.348;2023-05-02T01:52:10;6.38;;;4.57;;
7263;SDS011;3673;52.480;13.348;2023-05-02T01:54:37;8.15;;;4.35;;
7263;SDS011;3673;52.480;13.348;2023-05-02T01:57:06;7.50;;;5.38;;
7263;SDS011;3673;52.480;13.348;2023-05-02T01:59:36;9.88;;;4.93;;
7263;SDS011;3673;52.480;13.348;2023-05-02T02:02:06;9.05;;;4.95;;
7263;SDS011;3673;52.480;13.348;2023-05-02T02:04:36;8.15;;;4.70;;
7263;SDS011;3673;52.480;13.348;2023-05-02T02:07:08;6.10;;;4.70;;
7263;SDS011;3673;52.480;13.348;2023-05-02T02:09:38;8.68;;;4.88;;
7263;SDS011;3673;52.480;13.348;2023-05-02T02:12:06;5.70;;;4.50;;
7263;SDS011;3673;52.480;13.348;2023-05-02T02:14:38;8.20;;;4.43;;
7263;SDS011;3673;52.480;13.348;2023-05-02T02:17:14;6.03;;;4.32;;
7263;SDS011;3673;52.480;13.348;2023-05-02T02:19:49;7.22;;;4.95;;
7263;SDS011;3673;52.480;13.348;2023-05-02T02:22:18;7.70;;;4.68;;
7263;SDS011;3673;52.480;13.348;2023-05-02T02:24:49;8.57;;;4.55;;
7263;SDS011;3673;52.480;13.348;2023-05-02T02:27:19;5.72;;;4.10;;
7263;SDS011;3673;52.480;13.348;2023-05-02T02:29:46;9.48;;;4.40;;
7263;SDS011;3673;52.480;13.348;2023-05-02T02:32:14;6.40;;;4.68;;
7263;SDS011;3673;52.480;13.348;2023-05-02T02:34:41;6.57;;;4.13;;
7263;SDS011;3673;52.480;13.348;2023-05-02T02:37:11;6.50;;;4.25;;
7263;SDS011;3673;52.480;13.348;2023-05-02T02:39:43;6.07;;;3.70;;
7263;SDS011;3673;52.480;13.348;2023-05-02T02:42:21;9.95;;;4.53;;
7263;SDS011;3673;52.480;13.348;2023-05-02T02:45:00;4.72;;;3.95;;
7263;SDS011;3673;52.480;13.348;2023-05-02T02:47:46;8.05;;;3.83;;
7263;SDS011;3673;52.480;13.348;2023-05-02T02:50:22;6.07;;;3.60;;
7263;SDS011;3673;52.480;13.348;2023-05-02T02:53:04;7.10;;;3.85;;
7263;SDS011;3673;52.480;13.348;2023-05-02T02:55:35;8.05;;;3.67;;
7263;SDS011;3673;52.480;13.348;2023-05-02T02:58:13;7.10;;;3.65;;
7263;SDS011;3673;52.480;13.348;2023-05-02T03:00:56;7.00;;;3.65;;
7263;SDS011;3673;52.480;13.348;2023-05-02T03:03:28;8.70;;;4.50;;
7263;SDS011;3673;52.480;13.348;2023-05-02T03:05:57;10.90;;;3.90;;
7263;SDS011;3673;52.480;13.348;2023-05-02T03:08:25;9.20;;;3.92;;
7263;SDS011;3673;52.480;13.348;2023-05-02T03:10:52;10.75;;;4.13;;
7263;SDS011;3673;52.480;13.348;2023-05-02T03:13:18;5.35;;;3.60;;
7263;SDS011;3673;52.480;13.348;2023-05-02T03:16:04;7.38;;;3.90;;
7263;SDS011;3673;52.480;13.348;2023-05-02T03:18:58;5.63;;;3.70;;
7263;SDS011;3673;52.480;13.348;2023-05-02T03:21:25;5.57;;;3.50;;
7263;SDS011;3673;52.480;13.348;2023-05-02T03:23:55;4.72;;;3.38;;
7263;SDS011;3673;52.480;13.348;2023-05-02T03:26:23;8.60;;;4.47;;
7263;SDS011;3673;52.480;13.348;2023-05-02T03:28:50;5.68;;;3.88;;
7263;SDS011;3673;52.480;13.348;2023-05-02T03:31:18;8.23;;;3.75;;
7263;SDS011;3673;52.480;13.348;2023-05-02T03:33:45;6.85;;;4.47;;
7263;SDS011;3673;52.480;13.348;2023-05-02T03:36:13;8.57;;;5.63;;
7263;SDS011;3673;52.480;13.348;2023-05-02T03:38:40;11.63;;;4.60;;
7263;SDS011;3673;52.480;13.348;2023-05-02T03:41:07;7.97;;;3.92;;
7263;SDS011;3673;52.480;13.348;2023-05-02T03:43:34;7.90;;;4.43;;
7263;SDS011;3673;52.480;13.348;2023-05-02T03:46:05;5.53;;;3.40;;
7263;SDS011;3673;52.480;13.348;2023-05-02T03:48:33;5.15;;;3.95;;
7263;SDS011;3673;52.480;13.348;2023-05-02T03:51:00;8.95;;;4.68;;
7263;SDS011;3673;52.480;13.348;2023-05-02T03:53:29;8.20;;;4.28;;
7263;SDS011;3673;52.480;13.348;2023-05-02T03:55:56;7.35;;;4.35;;
7263;SDS011;3673;52.480;13.348;2023-05-02T03:58:23;5.35;;;3.83;;
7263;SDS011;3673;52.480;13.348;2023-05-02T04:00:50;6.55;;;4.25;;
7263;SDS011;3673;52.480;13.348;2023-05-02T04:03:18;7.13;;;3.92;;
7263;SDS011;3673;52.480;13.348;2023-05-02T04:05:45;8.00;;;4.13;;
7263;SDS011;3673;52.480;13.348;2023-05-02T04:08:12;7.15;;;4.13;;
7263;SDS011;3673;52.480;13.348;2023-05-02T04:10:40;5.18;;;3.70;;
7263;SDS011;3673;52.480;13.348;2023-05-02T04:13:07;6.47;;;3.40;;
7263;SDS011;3673;52.480;13.348;2023-05-02T04:15:34;4.68;;;3.08;;
7263;SDS011;3673;52.480;13.348;2023-05-02T04:18:01;5.57;;;4.07;;
7263;SDS011;3673;52.480;13.348;2023-05-02T04:20:28;5.43;;;3.35;;
7263;SDS011;3673;52.480;13.348;2023-05-02T04:22:55;7.82;;;3.50;;
7263;SDS011;3673;52.480;13.348;2023-05-02T04:25:21;5.32;;;3.45;;
7263;SDS011;3673;52.480;13.348;2023-05-02T04:27:49;7.95;;;3.85;;
7263;SDS011;3673;52.480;13.348;2023-05-02T04:30:16;3.90;;;3.50;;
7263;SDS011;3673;52.480;13.348;2023-05-02T04:32:43;5.00;;;3.15;;
7263;SDS011;3673;52.480;13.348;2023-05-02T04:35:10;5.18;;;3.92;;
7263;SDS011;3673;52.480;13.348;2023-05-02T04:37:39;6.65;;;3.25;;
7263;SDS011;3673;52.480;13.348;2023-05-02T04:40:06;9.45;;;3.95;;
7263;SDS011;3673;52.480;13.348;2023-05-02T04:42:34;6.70;;;3.30;;
7263;SDS011;3673;52.480;13.348;2023-05-02T04:45:03;6.18;;;3.45;;
7263;SDS011;3673;52.480;13.348;2023-05-02T04:47:31;4.63;;;3.08;;
7263;SDS011;3673;52.480;13.348;2023-05-02T04:49:58;10.50;;;3.60;;
7263;SDS011;3673;52.480;13.348;2023-05-02T04:52:25;4.55;;;3.25;;
7263;SDS011;3673;52.480;13.348;2023-05-02T04:54:52;9.88;;;3.47;;
7263;SDS011;3673;52.480;13.348;2023-05-02T04:57:18;6.95;;;3.50;;
7263;SDS011;3673;52.480;13.348;2023-05-02T04:59:45;5.40;;;2.92;;
7263;SDS011;3673;52.480;13.348;2023-05-02T05:02:14;8.32;;;3.80;;
7263;SDS011;3673;52.480;13.348;2023-05-02T05:04:41;5.22;;;3.30;;
7263;SDS011;3673;52.480;13.348;2023-05-02T05:07:09;6.97;;;3.53;;
7263;SDS011;3673;52.480;13.348;2023-05-02T05:09:36;15.95;;;3.75;;
7263;SDS011;3673;52.480;13.348;2023-05-02T05:12:03;7.30;;;3.58;;
7263;SDS011;3673;52.480;13.348;2023-05-02T05:14:30;7.20;;;3.42;;
7263;SDS011;3673;52.480;13.348;2023-05-02T05:16:57;6.65;;;3.33;;
7263;SDS011;3673;52.480;13.348;2023-05-02T05:19:25;5.50;;;3.20;;
7263;SDS011;3673;52.480;13.348;2023-05-02T05:21:52;5.15;;;3.53;;
7263;SDS011;3673;52.480;13.348;2023-05-02T05:24:19;4.00;;;2.80;;
7263;SDS011;3673;52.480;13.348;2023-05-02T05:26:46;7.57;;;3.70;;
7263;SDS011;3673;52.480;13.348;2023-05-02T05:29:13;8.27;;;3.95;;
7263;SDS011;3673;52.480;13.348;2023-05-02T05:31:40;6.32;;;3.70;;
7263;SDS011;3673;52.480;13.348;2023-05-02T05:34:06;9.30;;;4.20;;
7263;SDS011;3673;52.480;13.348;2023-05-02T05:36:34;5.95;;;4.07;;
7263;SDS011;3673;52.480;13.348;2023-05-02T05:39:02;11.23;;;4.95;;
7263;SDS011;3673;52.480;13.348;2023-05-02T05:41:29;5.75;;;3.42;;
7263;SDS011;3673;52.480;13.348;2023-05-02T05:43:56;5.88;;;3.75;;
7263;SDS011;3673;52.480;13.348;2023-05-02T05:46:23;8.23;;;4.50;;
7263;SDS011;3673;52.480;13.348;2023-05-02T05:48:49;6.10;;;4.20;;
7263;SDS011;3673;52.480;13.348;2023-05-02T05:51:16;9.52;;;4.82;;
7263;SDS011;3673;52.480;13.348;2023-05-02T05:53:44;11.18;;;4.15;;
7263;SDS011;3673;52.480;13.348;2023-05-02T05:56:11;6.20;;;4.50;;
7263;SDS011;3673;52.480;13.348;2023-05-02T05:58:39;7.10;;;4.72;;
7263;SDS011;3673;52.480;13.348;2023-05-02T06:01:08;7.45;;;4.68;;
7263;SDS011;3673;52.480;13.348;2023-05-02T06:03:35;8.30;;;5.57;;
7263;SDS011;3673;52.480;13.348;2023-05-02T06:06:02;10.15;;;5.32;;
7263;SDS011;3673;52.480;13.348;2023-05-02T06:08:29;8.68;;;5.60;;
7263;SDS011;3673;52.480;13.348;2023-05-02T06:10:57;9.77;;;5.15;;
7263;SDS011;3673;52.480;13.348;2023-05-02T06:13:24;17.40;;;6.80;;
7263;SDS011;3673;52.480;13.348;2023-05-02T06:15:51;11.35;;;5.72;;
7263;SDS011;3673;52.480;13.348;2023-05-02T06:18:18;9.73;;;6.05;;
7263;SDS011;3673;52.480;13.348;2023-05-02T06:20:45;8.38;;;5.88;;
7263;SDS011;3673;52.480;13.348;2023-05-02T06:23:12;8.93;;;6.05;;
7263;SDS011;3673;52.480;13.348;2023-05-02T06:25:39;8.38;;;6.18;;
7263;SDS011;3673;52.480;13.348;2023-05-02T06:28:07;9.45;;;7.10;;
7263;SDS011;3673;52.480;13.348;2023-05-02T06:30:33;10.77;;;6.78;;
7263;SDS011;3673;52.480;13.348;2023-05-02T06:33:02;8.77;;;6.63;;
7263;SDS011;3673;52.480;13.348;2023-05-02T06:35:29;11.23;;;8.07;;
7263;SDS011;3673;52.480;13.348;2023-05-02T06:37:56;16.65;;;8.23;;
7263;SDS011;3673;52.480;13.348;2023-05-02T06:40:23;15.52;;;10.60;;
7263;SDS011;3673;52.480;13.348;2023-05-02T06:42:50;11.82;;;7.43;;
7263;SDS011;3673;52.480;13.348;2023-05-02T06:45:18;12.50;;;8.00;;
7263;SDS011;3673;52.480;13.348;2023-05-02T06:47:45;13.60;;;7.78;;
7263;SDS011;3673;52.480;13.348;2023-05-02T06:50:12;13.35;;;8.45;;
7263;SDS011;3673;52.480;13.348;2023-05-02T06:52:38;12.30;;;8.95;;
7263;SDS011;3673;52.480;13.348;2023-05-02T06:55:05;12.57;;;8.80;;
7263;SDS011;3673;52.480;13.348;2023-05-02T06:57:33;14.93;;;9.40;;
7263;SDS011;3673;52.480;13.348;2023-05-02T07:00:00;14.38;;;9.10;;
7263;SDS011;3673;52.480;13.348;2023-05-02T07:02:29;12.13;;;8.48;;
7263;SDS011;3673;52.480;13.348;2023-05-02T07:04:56;17.85;;;8.60;;
7263;SDS011;3673;52.480;13.348;2023-05-02T07:07:22;14.15;;;8.45;;
7263;SDS011;3673;52.480;13.348;2023-05-02T07:09:49;11.48;;;8.15;;
7263;SDS011;3673;52.480;13.348;2023-05-02T07:12:16;13.68;;;8.27;;
7263;SDS011;3673;52.480;13.348;2023-05-02T07:14:44;13.05;;;8.38;;
7263;SDS011;3673;52.480;13.348;2023-05-02T07:17:11;16.25;;;8.35;;
7263;SDS011;3673;52.480;13.348;2023-05-02T07:19:41;11.43;;;8.18;;
7263;SDS011;3673;52.480;13.348;2023-05-02T07:22:07;13.40;;;7.88;;
7263;SDS011;3673;52.480;13.348;2023-05-02T07:24:34;10.18;;;7.32;;
7263;SDS011;3673;52.480;13.348;2023-05-02T07:27:05;13.68;;;8.38;;
7263;SDS011;3673;52.480;13.348;2023-05-02T07:29:31;11.85;;;7.72;;
7263;SDS011;3673;52.480;13.348;2023-05-02T07:31:58;13.38;;;8.25;;
7263;SDS011;3673;52.480;13.348;2023-05-02T07:34:25;11.35;;;7.30;;
7263;SDS011;3673;52.480;13.348;2023-05-02T07:36:53;9.65;;;7.00;;
7263;SDS011;3673;52.480;13.348;2023-05-02T07:39:21;9.63;;;7.15;;
7263;SDS011;3673;52.480;13.348;2023-05-02T07:41:49;10.65;;;7.03;;
7263;SDS011;3673;52.480;13.348;2023-05-02T07:44:17;10.27;;;7.30;;
7263;SDS011;3673;52.480;13.348;2023-05-02T07:46:43;8.93;;;6.68;;
7263;SDS011;3673;52.480;13.348;2023-05-02T07:49:10;9.32;;;7.10;;
7263;SDS011;3673;52.480;13.348;2023-05-02T07:51:38;7.57;;;5.80;;
7263;SDS011;3673;52.480;13.348;2023-05-02T07:54:15;7.93;;;6.20;;
7263;SDS011;3673;52.480;13.348;2023-05-02T07:56:42;8.57;;;6.45;;
7263;SDS011;3673;52.480;13.348;2023-05-02T08:01:49;11.15;;;7.05;;
7263;SDS011;3673;52.480;13.348;2023-05-02T08:04:16;11.18;;;7.47;;
7263;SDS011;3673;52.480;13.348;2023-05-02T08:06:43;14.68;;;7.00;;
7263;SDS011;3673;52.480;13.348;2023-05-02T08:09:10;10.43;;;6.65;;
7263;SDS011;3673;52.480;13.348;2023-05-02T08:12:09;8.85;;;7.00;;
7263;SDS011;3673;52.480;13.348;2023-05-02T08:14:36;11.50;;;6.93;;
7263;SDS011;3673;52.480;13.348;2023-05-02T08:17:03;9.82;;;6.30;;
7263;SDS011;3673;52.480;13.348;2023-05-02T08:19:29;10.38;;;7.50;;
7263;SDS011;3673;52.480;13.348;2023-05-02T08:21:57;10.95;;;7.32;;
7263;SDS011;3673;52.480;13.348;2023-05-02T08:24:24;9.30;;;6.57;;
7263;SDS011;3673;52.480;13.348;2023-05-02T08:26:51;12.00;;;7.82;;
7263;SDS011;3673;52.480;13.348;2023-05-02T08:29:19;9.85;;;7.97;;
7263;SDS011;3673;52.480;13.348;2023-05-02T08:31:46;10.60;;;7.07;;
7263;SDS011;3673;52.480;13.348;2023-05-02T08:34:15;12.68;;;7.55;;
7263;SDS011;3673;52.480;13.348;2023-05-02T08:36:42;8.95;;;7.47;;
7263;SDS011;3673;52.480;13.348;2023-05-02T08:39:09;8.90;;;6.78;;
7263;SDS011;3673;52.480;13.348;2023-05-02T08:41:36;11.45;;;7.63;;
7263;SDS011;3673;52.480;13.348;2023-05-02T08:44:04;8.02;;;5.75;;
7263;SDS011;3673;52.480;13.348;2023-05-02T08:46:35;9.05;;;5.65;;
7263;SDS011;3673;52.480;13.348;2023-05-02T08:49:05;13.32;;;8.85;;
7263;SDS011;3673;52.480;13.348;2023-05-02T08:51:35;9.00;;;5.65;;
7263;SDS011;3673;52.480;13.348;2023-05-02T08:54:03;7.50;;;4.50;;
7263;SDS011;3673;52.480;13.348;2023-05-02T08:56:34;6.80;;;4.80;;
7263;SDS011;3673;52.480;13.348;2023-05-02T08:59:02;5.97;;;4.32;;
7263;SDS011;3673;52.480;13.348;2023-05-02T09:01:29;5.88;;;4.57;;
7263;SDS011;3673;52.480;13.348;2023-05-02T09:03:59;6.03;;;3.72;;
7263;SDS011;3673;52.480;13.348;2023-05-02T09:06:27;5.90;;;3.90;;
7263;SDS011;3673;52.480;13.348;2023-05-02T09:08:54;6.13;;;4.35;;
7263;SDS011;3673;52.480;13.348;2023-05-02T09:11:24;7.93;;;4.50;;
7263;SDS011;3673;52.480;13.348;2023-05-02T09:13:51;5.53;;;4.18;;
7263;SDS011;3673;52.480;13.348;2023-05-02T09:16:18;4.50;;;3.60;;
7263;SDS011;3673;52.480;13.348;2023-05-02T09:18:47;12.18;;;6.70;;
7263;SDS011;3673;52.480;13.348;2023-05-02T09:21:17;7.43;;;5.18;;
7263;SDS011;3673;52.480;13.348;2023-05-02T09:23:47;5.70;;;4.40;;
7263;SDS011;3673;52.480;13.348;2023-05-02T09:26:18;7.05;;;4.53;;
7263;SDS011;3673;52.480;13.348;2023-05-02T09:28:57;9.50;;;5.43;;
7263;SDS011;3673;52.480;13.348;2023-05-02T09:31:27;4.75;;;3.80;;
7263;SDS011;3673;52.480;13.348;2023-05-02T09:34:06;5.20;;;4.07;;
7263;SDS011;3673;52.480;13.348;2023-05-02T09:36:39;5.07;;;3.80;;
7263;SDS011;3673;52.480;13.348;2023-05-02T09:39:08;5.35;;;3.70;;
7263;SDS011;3673;52.480;13.348;2023-05-02T09:41:38;11.05;;;4.88;;
7263;SDS011;3673;52.480;13.348;2023-05-02T09:44:05;5.88;;;4.25;;
7263;SDS011;3673;52.480;13.348;2023-05-02T09:46:40;4.43;;;3.72;;
7263;SDS011;3673;52.480;13.348;2023-05-02T09:49:07;5.70;;;4.15;;
7263;SDS011;3673;52.480;13.348;2023-05-02T09:51:34;7.53;;;5.07;;
7263;SDS011;3673;52.480;13.348;2023-05-02T09:54:03;7.47;;;4.80;;
7263;SDS011;3673;52.480;13.348;2023-05-02T09:56:30;7.10;;;4.70;;
7263;SDS011;3673;52.480;13.348;2023-05-02T09:59:12;6.45;;;4.00;;
7263;SDS011;3673;52.480;13.348;2023-05-02T10:01:41;5.07;;;4.05;;
7263;SDS011;3673;52.480;13.348;2023-05-02T10:04:09;4.80;;;4.03;;
7263;SDS011;3673;52.480;13.348;2023-05-02T10:06:40;6.20;;;4.20;;
7263;SDS011;3673;52.480;13.348;2023-05-02T10:09:10;7.35;;;4.25;;
7263;SDS011;3673;52.480;13.348;2023-05-02T10:11:39;6.60;;;4.32;;
7263;SDS011;3673;52.480;13.348;2023-05-02T10:14:09;6.00;;;4.50;;
7263;SDS011;3673;52.480;13.348;2023-05-02T10:16:37;7.47;;;4.60;;
7263;SDS011;3673;52.480;13.348;2023-05-02T10:19:17;3.75;;;3.05;;
7263;SDS011;3673;52.480;13.348;2023-05-02T10:21:50;6.25;;;3.83;;
7263;SDS011;3673;52.480;13.348;2023-05-02T10:24:19;5.05;;;3.78;;
7263;SDS011;3673;52.480;13.348;2023-05-02T10:26:46;5.00;;;4.32;;
7263;SDS011;3673;52.480;13.348;2023-05-02T10:29:14;5.75;;;4.28;;
7263;SDS011;3673;52.480;13.348;2023-05-02T10:31:41;6.50;;;4.65;;
7263;SDS011;3673;52.480;13.348;2023-05-02T10:34:10;6.25;;;5.00;;
7263;SDS011;3673;52.480;13.348;2023-05-02T10:36:37;4.80;;;3.80;;
7263;SDS011;3673;52.480;13.348;2023-05-02T10:39:04;6.82;;;4.00;;
7263;SDS011;3673;52.480;13.348;2023-05-02T10:41:33;6.30;;;3.90;;
7263;SDS011;3673;52.480;13.348;2023-05-02T10:44:02;4.53;;;3.53;;
7263;SDS011;3673;52.480;13.348;2023-05-02T10:46:32;8.68;;;4.35;;
7263;SDS011;3673;52.480;13.348;2023-05-02T10:49:01;5.97;;;3.30;;
7263;SDS011;3673;52.480;13.348;2023-05-02T10:51:29;6.20;;;3.78;;
7263;SDS011;3673;52.480;13.348;2023-05-02T10:54:17;8.98;;;3.20;;
7263;SDS011;3673;52.480;13.348;2023-05-02T10:57:02;12.75;;;8.13;;
7263;SDS011;3673;52.480;13.348;2023-05-02T10:59:32;8.75;;;4.00;;
7263;SDS011;3673;52.480;13.348;2023-05-02T11:02:01;7.63;;;3.45;;
7263;SDS011;3673;52.480;13.348;2023-05-02T11:07:25;7.85;;;4.68;;
7263;SDS011;3673;52.480;13.348;2023-05-02T11:09:52;14.00;;;6.32;;
7263;SDS011;3673;52.480;13.348;2023-05-02T11:15:13;10.88;;;5.70;;
7263;SDS011;3673;52.480;13.348;2023-05-02T11:17:58;17.60;;;6.43;;
7263;SDS011;3673;52.480;13.348;2023-05-02T11:20:26;15.75;;;7.10;;
7263;SDS011;3673;52.480;13.348;2023-05-02T11:22:57;15.45;;;7.53;;
7263;SDS011;3673;52.480;13.348;2023-05-02T11:25:46;15.05;;;6.45;;
7263;SDS011;3673;52.480;13.348;2023-05-02T11:34:27;10.18;;;4.63;;
7263;SDS011;3673;52.480;13.348;2023-05-02T11:37:09;11.80;;;4.88;;
7263;SDS011;3673;52.480;13.348;2023-05-02T11:39:38;6.60;;;3.90;;
7263;SDS011;3673;52.480;13.348;2023-05-02T11:42:05;7.00;;;3.55;;
7263;SDS011;3673;52.480;13.348;2023-05-02T11:44:33;9.40;;;3.80;;
7263;SDS011;3673;52.480;13.348;2023-05-02T11:47:31;6.63;;;3.10;;
7263;SDS011;3673;52.480;13.348;2023-05-02T11:49:58;8.52;;;3.88;;
7263;SDS011;3673;52.480;13.348;2023-05-02T11:52:29;10.13;;;3.50;;
7263;SDS011;3673;52.480;13.348;2023-05-02T11:55:02;7.85;;;3.80;;
7263;SDS011;3673;52.480;13.348;2023-05-02T11:57:33;7.20;;;4.22;;
7263;SDS011;3673;52.480;13.348;2023-05-02T12:00:02;10.85;;;4.40;;
7263;SDS011;3673;52.480;13.348;2023-05-02T12:02:35;19.05;;;9.40;;
7263;SDS011;3673;52.480;13.348;2023-05-02T12:05:03;14.25;;;7.68;;
7263;SDS011;3673;52.480;13.348;2023-05-02T12:07:35;10.68;;;3.45;;
7263;SDS011;3673;52.480;13.348;2023-05-02T12:10:04;11.55;;;3.50;;
7263;SDS011;3673;52.480;13.348;2023-05-02T12:12:32;10.65;;;3.42;;
7263;SDS011;3673;52.480;13.348;2023-05-02T12:15:03;8.48;;;3.38;;
7263;SDS011;3673;52.480;13.348;2023-05-02T12:17:32;7.68;;;3.72;;
7263;SDS011;3673;52.480;13.348;2023-05-02T12:20:02;8.80;;;3.35;;
7263;SDS011;3673;52.480;13.348;2023-05-02T12:22:31;7.47;;;2.95;;
7263;SDS011;3673;52.480;13.348;2023-05-02T12:24:58;6.38;;;2.88;;
7263;SDS011;3673;52.480;13.348;2023-05-02T12:27:27;7.88;;;3.63;;
7263;SDS011;3673;52.480;13.348;2023-05-02T12:29:54;10.68;;;3.08;;
7263;SDS011;3673;52.480;13.348;2023-05-02T12:32:27;8.93;;;3.42;;
7263;SDS011;3673;52.480;13.348;2023-05-02T12:34:56;9.07;;;3.28;;
7263;SDS011;3673;52.480;13.348;2023-05-02T12:37:24;9.20;;;3.28;;
7263;SDS011;3673;52.480;13.348;2023-05-02T12:39:52;11.98;;;3.67;;
7263;SDS011;3673;52.480;13.348;2023-05-02T12:42:21;7.82;;;3.70;;
7263;SDS011;3673;52.480;13.348;2023-05-02T12:44:51;12.38;;;3.75;;
7263;SDS011;3673;52.480;13.348;2023-05-02T12:47:18;12.07;;;3.20;;
7263;SDS011;3673;52.480;13.348;2023-05-02T12:49:51;9.32;;;3.50;;
7263;SDS011;3673;52.480;13.348;2023-05-02T12:52:28;18.02;;;3.88;;
7263;SDS011;3673;52.480;13.348;2023-05-02T12:55:15;15.00;;;4.43;;
7263;SDS011;3673;52.480;13.348;2023-05-02T12:57:42;13.45;;;4.22;;
7263;SDS011;3673;52.480;13.348;2023-05-02T13:00:09;14.18;;;3.95;;
7263;SDS011;3673;52.480;13.348;2023-05-02T13:02:37;12.45;;;3.97;;
7263;SDS011;3673;52.480;13.348;2023-05-02T13:05:13;10.93;;;4.72;;
7263;SDS011;3673;52.480;13.348;2023-05-02T13:07:41;13.43;;;4.20;;
7263;SDS011;3673;52.480;13.348;2023-05-02T13:10:08;11.15;;;4.43;;
7263;SDS011;3673;52.480;13.348;2023-05-02T13:12:36;10.82;;;3.95;;
7263;SDS011;3673;52.480;13.348;2023-05-02T13:15:03;16.23;;;4.25;;
7263;SDS011;3673;52.480;13.348;2023-05-02T13:17:32;10.95;;;4.68;;
7263;SDS011;3673;52.480;13.348;2023-05-02T13:20:00;15.68;;;4.07;;
7263;SDS011;3673;52.480;13.348;2023-05-02T13:22:28;9.45;;;3.75;;
7263;SDS011;3673;52.480;13.348;2023-05-02T13:24:55;9.38;;;3.17;;
7263;SDS011;3673;52.480;13.348;2023-05-02T13:27:22;12.27;;;4.97;;
7263;SDS011;3673;52.480;13.348;2023-05-02T13:29:49;9.57;;;4.55;;
7263;SDS011;3673;52.480;13.348;2023-05-02T13:32:16;8.38;;;3.20;;
7263;SDS011;3673;52.480;13.348;2023-05-02T13:34:45;7.35;;;3.00;;
7263;SDS011;3673;52.480;13.348;2023-05-02T13:37:12;8.05;;;3.33;;
7263;SDS011;3673;52.480;13.348;2023-05-02T13:39:40;7.20;;;2.70;;
7263;SDS011;3673;52.480;13.348;2023-05-02T13:42:07;8.95;;;3.90;;
7263;SDS011;3673;52.480;13.348;2023-05-02T13:44:34;14.43;;;3.70;;
7263;SDS011;3673;52.480;13.348;2023-05-02T13:47:01;10.38;;;3.05;;
7263;SDS011;3673;52.480;13.348;2023-05-02T13:49:28;11.75;;;3.70;;
7263;SDS011;3673;52.480;13.348;2023-05-02T13:51:55;12.45;;;3.28;;
7263;SDS011;3673;52.480;13.348;2023-05-02T13:54:21;8.90;;;3.40;;
7263;SDS011;3673;52.480;13.348;2023-05-02T13:56:50;9.13;;;3.35;;
7263;SDS011;3673;52.480;13.348;2023-05-02T13:59:17;7.25;;;3.42;;
7263;SDS011;3673;52.480;13.348;2023-05-02T14:01:43;8.85;;;2.90;;
7263;SDS011;3673;52.480;13.348;2023-05-02T14:04:10;8.07;;;4.05;;
7263;SDS011;3673;52.480;13.348;2023-05-02T14:06:37;6.15;;;3.22;;
7263;SDS011;3673;52.480;13.348;2023-05-02T14:09:04;9.57;;;3.50;;
7263;SDS011;3673;52.480;13.348;2023-05-02T14:11:32;12.35;;;3.92;;
7263;SDS011;3673;52.480;13.348;2023-05-02T14:14:00;13.93;;;3.88;;
7263;SDS011;3673;52.480;13.348;2023-05-02T14:16:27;10.20;;;4.50;;
7263;SDS011;3673;52.480;13.348;2023-05-02T14:18:54;7.25;;;3.47;;
7263;SDS011;3673;52.480;13.348;2023-05-02T14:21:21;10.02;;;3.60;;
7263;SDS011;3673;52.480;13.348;2023-05-02T14:23:48;8.65;;;3.53;;
7263;SDS011;3673;52.480;13.348;2023-05-02T14:26:14;9.80;;;4.05;;
7263;SDS011;3673;52.480;13.348;2023-05-02T14:28:41;7.10;;;4.18;;
7263;SDS011;3673;52.480;13.348;2023-05-02T14:31:10;10.43;;;4.82;;
7263;SDS011;3673;52.480;13.348;2023-05-02T14:33:37;6.95;;;3.15;;
7263;SDS011;3673;52.480;13.348;2023-05-02T14:36:04;7.65;;;3.10;;
7263;SDS011;3673;52.480;13.348;2023-05-02T14:38:31;15.93;;;3.90;;
7263;SDS011;3673;52.480;13.348;2023-05-02T14:40:58;7.88;;;3.20;;
7263;SDS011;3673;52.480;13.348;2023-05-02T14:43:26;9.52;;;3.30;;
7263;SDS011;3673;52.480;13.348;2023-05-02T14:45:53;12.68;;;5.00;;
7263;SDS011;3673;52.480;13.348;2023-05-02T14:48:22;10.38;;;5.32;;
7263;SDS011;3673;52.480;13.348;2023-05-02T14:50:49;9.68;;;3.90;;
7263;SDS011;3673;52.480;13.348;2023-05-02T14:53:17;7.78;;;2.92;;
7263;SDS011;3673;52.480;13.348;2023-05-02T14:55:45;10.00;;;3.50;;
7263;SDS011;3673;52.480;13.348;2023-05-02T14:58:12;9.23;;;3.15;;
7263;SDS011;3673;52.480;13.348;2023-05-02T15:00:44;13.10;;;4.15;;
7263;SDS011;3673;52.480;13.348;2023-05-02T15:03:11;12.60;;;3.78;;
7263;SDS011;3673;52.480;13.348;2023-05-02T15:05:39;8.07;;;3.08;;
7263;SDS011;3673;52.480;13.348;2023-05-02T15:08:06;9.27;;;3.80;;
7263;SDS011;3673;52.480;13.348;2023-05-02T15:10:36;14.02;;;5.72;;
7263;SDS011;3673;52.480;13.348;2023-05-02T15:13:04;7.78;;;3.88;;
7263;SDS011;3673;52.480;13.348;2023-05-02T15:15:32;14.00;;;5.03;;
7263;SDS011;3673;52.480;13.348;2023-05-02T15:17:59;8.20;;;4.60;;
7263;SDS011;3673;52.480;13.348;2023-05-02T15:20:26;9.80;;;3.45;;
7263;SDS011;3673;52.480;13.348;2023-05-02T15:22:54;7.10;;;3.67;;
7263;SDS011;3673;52.480;13.348;2023-05-02T15:25:22;14.05;;;3.78;;